Time;durP1;ratioP1;P1;durP2;ratioP2;P2;SDS_P1;SDS_P2;PMS_P1;PMS_P2;Temp;Humidity;BMP_temperature;BMP_pressure;BME280_temperature;BME280_humidity;BME280_pressure;Samples;Min_cycle;Max_cycle;Signal;HPM_P1;HPM_P2
2021/03/20 00:00:35;;;;;;;7.57;6.30;;;3.40;99.90;;;;;;5012361;28;20184;-64
2021/03/20 00:03:01;;;;;;;8.37;6.60;;;3.30;99.90;;;;;;5012942;28;20184;-63
2021/03/20 00:05:27;;;;;;;11.97;7.47;;;3.30;99.90;;;;;;5012675;28;20226;-64
2021/03/20 00:07:53;;;;;;;10.30;7.10;;;3.20;99.90;;;;;;5011821;28;20597;-64
2021/03/20 00:10:21;;;;;;;9.10;7.03;;;3.00;99.90;;;;;;5012251;28;20242;-64
2021/03/20 00:12:48;;;;;;;8.30;7.20;;;2.90;99.90;;;;;;5012581;28;20199;-63
2021/03/20 00:15:16;;;;;;;10.70;7.30;;;2.80;99.90;;;;;;5012415;28;20210;-64
2021/03/20 00:17:42;;;;;;;8.60;6.90;;;2.60;99.90;;;;;;5012678;28;20669;-64
2021/03/20 00:20:10;;;;;;;10.83;7.53;;;2.50;99.90;;;;;;5012026;28;20191;-64
2021/03/20 00:22:36;;;;;;;12.40;8.10;;;2.40;99.90;;;;;;5012310;28;20230;-64
2021/03/20 00:25:03;;;;;;;8.37;7.23;;;2.30;99.90;;;;;;5012289;28;20646;-63
2021/03/20 00:27:29;;;;;;;9.77;7.80;;;2.20;99.90;;;;;;5012578;28;20172;-64
2021/03/20 00:29:55;;;;;;;8.47;7.50;;;2.20;99.90;;;;;;5011946;28;20653;-64
2021/03/20 00:32:20;;;;;;;10.67;7.03;;;2.10;99.90;;;;;;5012325;28;20200;-64
2021/03/20 00:34:46;;;;;;;13.67;9.00;;;2.00;99.90;;;;;;5012168;28;20190;-64
2021/03/20 00:37:12;;;;;;;12.90;9.00;;;2.00;99.90;;;;;;5011632;28;20202;-63
2021/03/20 00:39:40;;;;;;;12.60;8.87;;;1.90;99.90;;;;;;5012454;28;20169;-64
2021/03/20 00:42:06;;;;;;;12.03;8.60;;;1.80;99.90;;;;;;5012181;28;20188;-64
2021/03/20 00:44:32;;;;;;;10.87;8.27;;;1.80;99.90;;;;;;5012672;28;20546;-64
2021/03/20 00:46:57;;;;;;;11.43;8.83;;;1.80;99.90;;;;;;5012019;28;20176;-64
2021/03/20 00:49:23;;;;;;;12.07;9.27;;;1.70;99.90;;;;;;5012305;28;20649;-64
2021/03/20 00:51:49;;;;;;;10.83;9.00;;;1.70;99.90;;;;;;5011646;28;20182;-64
2021/03/20 00:54:14;;;;;;;10.57;8.60;;;1.70;99.90;;;;;;5010889;28;20188;-64
2021/03/20 00:56:40;;;;;;;10.20;8.47;;;1.60;99.90;;;;;;5011657;28;20656;-63
2021/03/20 00:59:05;;;;;;;11.20;9.10;;;1.60;99.90;;;;;;5011944;28;20258;-64
2021/03/20 01:01:31;;;;;;;13.10;9.07;;;1.50;99.90;;;;;;5011590;28;20168;-64
2021/03/20 01:03:57;;;;;;;12.77;9.20;;;1.50;99.90;;;;;;5011906;28;20230;-64
2021/03/20 01:06:26;;;;;;;13.10;8.67;;;1.50;99.90;;;;;;5012098;28;20256;-64
2021/03/20 01:08:53;;;;;;;12.53;9.67;;;1.40;99.90;;;;;;5011327;28;20196;-63
2021/03/20 01:11:20;;;;;;;12.83;8.97;;;1.40;99.90;;;;;;5011661;28;20172;-64
2021/03/20 01:13:46;;;;;;;12.00;9.67;;;1.40;99.90;;;;;;5011804;28;20284;-64
2021/03/20 01:16:12;;;;;;;14.47;10.53;;;1.50;99.90;;;;;;5011776;28;20176;-64
2021/03/20 01:18:39;;;;;;;12.93;10.23;;;1.50;99.90;;;;;;5011634;28;20227;-64
2021/03/20 01:21:06;;;;;;;14.30;10.40;;;1.60;99.90;;;;;;5011583;28;20218;-64
2021/03/20 01:23:32;;;;;;;15.30;10.10;;;1.70;99.90;;;;;;5011296;28;20196;-64
2021/03/20 01:25:58;;;;;;;14.13;11.00;;;1.80;99.90;;;;;;5011830;28;20649;-64
2021/03/20 01:28:29;;;;;;;12.37;9.97;;;1.80;99.90;;;;;;5011541;28;20186;-64
2021/03/20 01:30:56;;;;;;;12.80;10.70;;;1.90;99.90;;;;;;5011333;28;20556;-64
2021/03/20 01:33:21;;;;;;;13.23;9.13;;;2.00;99.90;;;;;;5011333;28;20724;-63
2021/03/20 01:35:47;;;;;;;14.43;10.77;;;2.00;99.90;;;;;;5011634;28;20271;-64
2021/03/20 01:38:13;;;;;;;12.90;10.50;;;2.00;99.90;;;;;;5011458;28;20226;-64
2021/03/20 01:40:49;;;;;;;17.13;9.67;;;1.90;99.90;;;;;;5011214;28;20176;-63
2021/03/20 01:43:19;;;;;;;13.37;10.37;;;1.90;99.90;;;;;;5011160;28;20669;-64
2021/03/20 01:45:45;;;;;;;12.53;9.93;;;1.80;99.90;;;;;;5011655;28;20180;-64
2021/03/20 01:48:23;;;;;;;11.53;9.87;;;1.70;99.90;;;;;;5011443;28;20641;-64
2021/03/20 01:50:56;;;;;;;11.47;8.47;;;1.70;99.90;;;;;;5009931;28;20195;-64
2021/03/20 01:53:22;;;;;;;11.53;9.10;;;1.60;99.90;;;;;;5010844;28;20757;-64
2021/03/20 01:55:47;;;;;;;10.73;8.93;;;1.60;99.90;;;;;;5011296;28;20277;-64
2021/03/20 01:58:14;;;;;;;11.60;9.97;;;1.60;99.90;;;;;;5011051;28;20207;-64
2021/03/20 02:00:44;;;;;;;13.07;9.70;;;1.60;99.90;;;;;;5011091;28;20176;-63
2021/03/20 02:03:17;;;;;;;13.20;9.30;;;1.60;99.90;;;;;;5011252;28;20196;-63
2021/03/20 02:05:43;;;;;;;12.00;9.73;;;1.60;99.90;;;;;;5015293;28;20175;-63
2021/03/20 02:08:12;;;;;;;14.57;10.03;;;1.60;99.90;;;;;;5015015;28;20187;-63
2021/03/20 02:10:40;;;;;;;15.37;9.70;;;1.60;99.90;;;;;;5014811;28;20676;-63
2021/03/20 02:13:12;;;;;;;14.97;10.50;;;1.50;99.90;;;;;;5015015;28;20257;-64
2021/03/20 02:15:44;;;;;;;14.77;9.97;;;1.50;99.90;;;;;;5014772;28;20172;-64
2021/03/20 02:18:38;;;;;;;14.20;10.90;;;1.40;99.90;;;;;;5014631;28;20211;-64
2021/03/20 02:21:21;;;;;;;16.10;10.57;;;1.40;99.90;;;;;;5014629;28;20165;-64
2021/03/20 02:23:50;;;;;;;13.13;9.87;;;1.30;99.90;;;;;;5014841;28;20188;-65
2021/03/20 02:26:44;;;;;;;14.73;10.47;;;1.30;99.90;;;;;;5014954;28;20173;-63
2021/03/20 02:29:29;;;;;;;14.83;9.80;;;1.20;99.90;;;;;;5014568;28;20187;-64
2021/03/20 02:32:13;;;;;;;11.83;9.73;;;1.10;99.90;;;;;;5013542;28;20184;-64
2021/03/20 02:34:59;;;;;;;12.13;9.00;;;1.00;99.90;;;;;;4995385;28;20172;-64
2021/03/20 02:38:02;;;;;;;13.77;10.20;;;0.80;99.90;;;;;;4998648;28;20559;-64
2021/03/20 02:40:37;;;;;;;12.93;10.07;;;0.80;99.90;;;;;;5014493;28;20199;-64
2021/03/20 02:43:48;;;;;;;17.03;9.87;;;0.80;99.90;;;;;;5014161;28;20231;-64
2021/03/20 02:46:38;;;;;;;15.90;9.63;;;0.70;99.90;;;;;;5013352;28;20229;-64
2021/03/20 02:49:15;;;;;;;17.80;10.37;;;0.70;99.90;;;;;;5014209;28;20172;-64
2021/03/20 02:51:48;;;;;;;14.37;10.13;;;0.60;99.90;;;;;;5014234;28;20171;-63
2021/03/20 02:54:42;;;;;;;16.20;11.40;;;0.60;99.90;;;;;;5056579;22;20273;-63
2021/03/20 02:57:32;;;;;;;16.50;11.17;;;0.60;99.90;;;;;;5033342;28;20218;-62
2021/03/20 03:00:04;;;;;;;15.77;10.50;;;0.60;99.90;;;;;;5033982;28;20176;-62
2021/03/20 03:02:32;;;;;;;14.67;10.60;;;0.60;99.90;;;;;;5033744;28;20211;-63
2021/03/20 03:05:09;;;;;;;17.30;11.40;;;0.60;99.90;;;;;;5032769;28;20229;-63
2021/03/20 03:07:58;;;;;;;17.60;11.03;;;0.60;99.90;;;;;;5014155;28;20207;-64
2021/03/20 03:10:32;;;;;;;12.83;9.37;;;0.50;99.90;;;;;;5015448;28;20180;-63
2021/03/20 03:13:06;;;;;;;14.83;10.00;;;0.50;99.90;;;;;;5033698;28;20249;-63
2021/03/20 03:15:39;;;;;;;15.90;9.90;;;0.40;99.90;;;;;;5032155;28;20172;-62
2021/03/20 03:18:12;;;;;;;12.00;9.93;;;0.50;99.90;;;;;;5033765;28;20210;-64
2021/03/20 03:20:44;;;;;;;12.23;9.60;;;0.40;99.90;;;;;;5033393;28;20171;-62
2021/03/20 03:23:15;;;;;;;15.70;9.57;;;0.40;99.90;;;;;;5033464;28;20194;-64
2021/03/20 03:25:44;;;;;;;12.50;9.17;;;0.30;99.90;;;;;;5033418;28;20168;-62
2021/03/20 03:28:15;;;;;;;12.23;8.63;;;0.30;99.90;;;;;;5033623;28;20184;-63
2021/03/20 03:30:40;;;;;;;14.83;9.27;;;0.20;99.90;;;;;;5032967;28;20168;-62
2021/03/20 03:33:53;;;;;;;11.50;8.63;;;0.30;99.90;;;;;;5033770;28;20217;-64
2021/03/20 03:36:21;;;;;;;12.60;9.00;;;0.30;99.90;;;;;;4990982;28;20180;-63
2021/03/20 03:39:10;;;;;;;12.07;8.37;;;0.30;99.90;;;;;;4991765;28;20205;-63
2021/03/20 03:41:39;;;;;;;11.37;8.30;;;0.20;99.90;;;;;;5009671;28;20668;-65
2021/03/20 03:44:07;;;;;;;15.57;7.87;;;0.20;99.90;;;;;;5033058;28;20278;-61
2021/03/20 03:46:36;;;;;;;10.83;7.77;;;0.10;99.90;;;;;;5032994;28;20180;-62
2021/03/20 03:49:06;;;;;;;11.50;8.30;;;0.10;99.90;;;;;;5032855;28;20664;-64
2021/03/20 03:51:31;;;;;;;13.53;8.80;;;0.10;99.90;;;;;;5013058;28;20530;-63
2021/03/20 03:53:58;;;;;;;12.10;8.47;;;0.10;99.90;;;;;;5013146;28;20204;-63
2021/03/20 03:56:43;;;;;;;13.40;8.07;;;0.10;99.90;;;;;;5031890;28;20180;-63
2021/03/20 03:59:20;;;;;;;11.27;8.17;;;0.10;99.90;;;;;;5032611;28;20568;-63
2021/03/20 04:02:17;;;;;;;13.90;8.33;;;0.10;99.90;;;;;;5032608;28;20163;-63
2021/03/20 04:04:53;;;;;;;12.20;7.93;;;0.10;99.90;;;;;;5013008;28;20230;-64
2021/03/20 04:07:45;;;;;;;11.23;7.97;;;0.20;99.90;;;;;;5015537;28;20278;-61
2021/03/20 04:10:31;;;;;;;11.13;7.33;;;0.10;99.90;;;;;;5026954;28;20191;-63
2021/03/20 04:13:32;;;;;;;13.77;8.83;;;0.00;99.90;;;;;;5031941;28;20219;-65
2021/03/20 04:16:14;;;;;;;15.70;7.93;;;0.10;99.90;;;;;;4997140;28;20681;-63
2021/03/20 04:18:52;;;;;;;13.20;8.40;;;0.10;99.90;;;;;;5032734;28;20203;-62
2021/03/20 04:21:29;;;;;;;11.33;8.40;;;0.00;99.90;;;;;;5032127;28;20228;-63
2021/03/20 04:24:04;;;;;;;12.00;8.10;;;0.00;99.90;;;;;;5032289;28;20212;-63
2021/03/20 04:26:36;;;;;;;11.33;8.20;;;0.00;99.90;;;;;;5031890;28;20175;-63
2021/03/20 04:29:14;;;;;;;15.73;7.90;;;0.00;99.90;;;;;;5030809;28;20191;-63
2021/03/20 04:31:49;;;;;;;9.30;6.83;;;-0.10;99.90;;;;;;5031971;28;20171;-64
2021/03/20 04:34:20;;;;;;;12.83;6.83;;;-0.10;99.90;;;;;;5031979;28;20578;-62
2021/03/20 04:36:57;;;;;;;11.13;8.40;;;-0.10;99.90;;;;;;5031316;28;20171;-63
2021/03/20 04:39:25;;;;;;;11.80;7.77;;;-0.10;99.90;;;;;;5031210;28;20266;-63
2021/03/20 04:41:52;;;;;;;11.70;8.47;;;-0.20;99.90;;;;;;5032061;28;20578;-62
2021/03/20 04:44:19;;;;;;;9.77;7.43;;;-0.20;99.90;;;;;;5030520;28;20199;-63
2021/03/20 04:46:45;;;;;;;11.63;6.97;;;-0.30;99.90;;;;;;5032205;28;20648;-62
2021/03/20 04:49:29;;;;;;;9.67;7.47;;;-0.20;99.90;;;;;;5030297;28;20518;-63
2021/03/20 04:52:14;;;;;;;8.53;6.70;;;-0.20;99.90;;;;;;5012135;28;20676;-62
2021/03/20 04:54:39;;;;;;;8.83;7.00;;;-0.30;99.90;;;;;;5029036;28;20187;-64
2021/03/20 04:57:14;;;;;;;9.77;6.90;;;-0.20;99.90;;;;;;5031607;28;20200;-63
2021/03/20 04:59:58;;;;;;;8.60;6.67;;;-0.30;99.90;;;;;;5031670;28;20213;-61
2021/03/20 05:02:40;;;;;;;9.30;7.03;;;-0.40;99.90;;;;;;5031714;28;20188;-64
2021/03/20 05:05:17;;;;;;;10.40;7.50;;;-0.50;99.90;;;;;;5031365;28;20179;-63
2021/03/20 05:07:43;;;;;;;8.70;6.43;;;-0.50;99.90;;;;;;5031889;28;20254;-63
2021/03/20 05:10:23;;;;;;;8.20;6.50;;;-0.50;99.90;;;;;;5031113;28;20175;-63
2021/03/20 05:12:50;;;;;;;11.43;6.93;;;-0.60;99.90;;;;;;5031768;28;20187;-63
2021/03/20 05:15:18;;;;;;;11.07;6.77;;;-0.70;99.90;;;;;;5031098;28;20187;-63
2021/03/20 05:17:44;;;;;;;8.20;6.43;;;-0.70;99.90;;;;;;5031410;28;20249;-63
2021/03/20 05:20:10;;;;;;;9.93;6.17;;;-0.80;99.90;;;;;;5031113;28;20649;-63
2021/03/20 05:22:35;;;;;;;9.03;7.03;;;-0.90;99.90;;;;;;5031590;28;20192;-60
2021/03/20 05:25:02;;;;;;;9.43;7.40;;;-0.90;99.90;;;;;;5030948;28;20195;-63
2021/03/20 05:27:32;;;;;;;11.20;6.87;;;-0.90;99.90;;;;;;5031369;28;20172;-62
2021/03/20 05:29:58;;;;;;;10.50;6.97;;;-1.00;99.90;;;;;;5031060;28;20237;-62
2021/03/20 05:32:30;;;;;;;10.80;7.03;;;-1.00;99.90;;;;;;5030022;28;20706;-63
2021/03/20 05:34:57;;;;;;;12.07;6.83;;;-1.10;99.90;;;;;;5031174;28;20679;-63
2021/03/20 05:37:27;;;;;;;11.00;7.17;;;-1.10;99.90;;;;;;5031073;28;20218;-63
2021/03/20 05:39:54;;;;;;;11.30;8.07;;;-1.10;99.90;;;;;;5033477;28;20672;-63
2021/03/20 05:42:35;;;;;;;8.00;6.80;;;-1.00;99.90;;;;;;5033979;28;20197;-63
2021/03/20 05:45:28;;;;;;;11.17;7.93;;;-1.10;99.90;;;;;;5035091;28;20175;-65
2021/03/20 05:48:03;;;;;;;14.40;7.47;;;-1.10;99.90;;;;;;5035644;28;20236;-62
2021/03/20 05:50:37;;;;;;;12.80;7.20;;;-1.10;99.90;;;;;;5034797;28;20179;-61
2021/03/20 05:53:06;;;;;;;9.77;6.60;;;-1.20;99.90;;;;;;5035094;28;20217;-64
2021/03/20 05:55:39;;;;;;;8.80;6.97;;;-1.20;99.90;;;;;;5033418;28;20179;-63
2021/03/20 05:58:25;;;;;;;10.00;6.40;;;-1.20;99.90;;;;;;5035134;28;20257;-63
2021/03/20 06:01:07;;;;;;;10.17;7.47;;;-1.20;99.90;;;;;;5034701;28;20225;-63
2021/03/20 06:03:52;;;;;;;9.87;6.53;;;-1.10;99.90;;;;;;5034571;28;20201;-63
2021/03/20 06:06:29;;;;;;;9.17;6.00;;;-1.10;99.90;;;;;;5035140;28;20706;-63
2021/03/20 06:09:23;;;;;;;11.07;7.40;;;-1.10;99.90;;;;;;5034822;28;20179;-63
2021/03/20 06:11:52;;;;;;;9.67;6.47;;;-1.10;99.90;;;;;;5034584;28;20168;-63
2021/03/20 06:14:33;;;;;;;10.50;6.87;;;-0.90;99.90;;;;;;5015226;28;20616;-63
2021/03/20 06:17:16;;;;;;;10.43;6.87;;;-0.90;99.90;;;;;;5032136;28;20578;-60
2021/03/20 06:19:58;;;;;;;7.13;5.57;;;-0.70;99.90;;;;;;5034704;28;20168;-65
2021/03/20 06:22:45;;;;;;;10.60;6.33;;;-0.50;99.90;;;;;;5034477;28;20195;-63
2021/03/20 06:25:31;;;;;;;8.97;5.90;;;-0.30;99.90;;;;;;5034648;28;20168;-63
2021/03/20 06:27:57;;;;;;;8.97;5.87;;;0.00;99.90;;;;;;5013490;28;20187;-63
2021/03/20 06:30:30;;;;;;;8.03;5.60;;;0.20;99.90;;;;;;5033973;28;20174;-63
2021/03/20 06:33:07;;;;;;;9.30;5.33;;;0.50;99.90;;;;;;5034456;28;20198;-63
2021/03/20 06:36:05;;;;;;;10.40;6.33;;;0.80;99.90;;;;;;5028563;28;20179;-63
2021/03/20 06:38:40;;;;;;;6.63;4.93;;;1.10;99.90;;;;;;5012759;28;20755;-63
2021/03/20 06:41:24;;;;;;;6.50;4.70;;;1.30;99.90;;;;;;5033625;28;20179;-63
2021/03/20 06:43:58;;;;;;;7.40;5.10;;;1.30;99.90;;;;;;5033964;28;20664;-63
2021/03/20 06:46:33;;;;;;;6.70;4.30;;;1.30;99.90;;;;;;5034135;28;20172;-64
2021/03/20 06:49:00;;;;;;;8.00;4.33;;;1.20;99.90;;;;;;5033903;28;20320;-64
2021/03/20 06:51:28;;;;;;;5.60;4.40;;;1.20;99.90;;;;;;5032063;28;20179;-64
2021/03/20 06:53:59;;;;;;;7.77;4.60;;;1.10;99.90;;;;;;5033677;28;20215;-63
2021/03/20 06:56:28;;;;;;;6.17;3.90;;;1.10;99.90;;;;;;5033977;28;20186;-64
2021/03/20 06:58:56;;;;;;;5.13;3.73;;;1.00;99.90;;;;;;5033993;28;20571;-62
2021/03/20 07:01:37;;;;;;;5.70;3.40;;;0.80;99.90;;;;;;5033403;28;20175;-63
2021/03/20 07:04:17;;;;;;;6.27;4.10;;;0.90;99.90;;;;;;5033927;28;20353;-63
2021/03/20 07:07:13;;;;;;;6.30;4.00;;;1.20;99.90;;;;;;5033590;28;20183;-63
2021/03/20 07:09:41;;;;;;;3.97;3.40;;;1.90;99.90;;;;;;5033625;28;20206;-64
2021/03/20 07:12:17;;;;;;;6.63;3.37;;;2.50;99.90;;;;;;5033445;28;20172;-62
2021/03/20 07:14:48;;;;;;;3.63;3.30;;;3.00;99.90;;;;;;5033228;28;20183;-64
2021/03/20 07:17:23;;;;;;;4.03;3.00;;;3.50;99.90;;;;;;5033182;28;20210;-64
2021/03/20 07:20:00;;;;;;;3.33;3.03;;;3.90;99.90;;;;;;5033111;28;20554;-64
2021/03/20 07:22:49;;;;;;;5.20;3.33;;;4.50;99.90;;;;;;5032926;28;20618;-64
2021/03/20 07:25:26;;;;;;;5.00;3.37;;;4.90;99.90;;;;;;5031759;28;20179;-62
2021/03/20 07:28:10;;;;;;;4.17;3.07;;;5.20;99.90;;;;;;5033421;28;20270;-63
2021/03/20 07:30:59;;;;;;;5.37;3.33;;;5.50;99.90;;;;;;5033001;28;20184;-63
2021/03/20 07:33:35;;;;;;;5.60;3.23;;;6.20;99.90;;;;;;5027238;28;20248;-63
2021/03/20 07:36:19;;;;;;;4.97;3.23;;;6.40;99.90;;;;;;5033198;28;20190;-63
2021/03/20 07:39:01;;;;;;;4.77;3.10;;;6.60;99.90;;;;;;5033059;28;20266;-63
2021/03/20 07:41:27;;;;;;;4.27;2.80;;;6.70;99.90;;;;;;5032352;28;20190;-64
2021/03/20 07:44:00;;;;;;;3.70;3.13;;;6.70;99.90;;;;;;5032788;28;20199;-64
2021/03/20 07:46:27;;;;;;;3.17;2.80;;;6.60;99.90;;;;;;5032814;28;20172;-64
2021/03/20 07:49:05;;;;;;;6.43;3.40;;;6.60;99.90;;;;;;5033005;28;20180;-64
2021/03/20 07:51:45;;;;;;;5.20;3.27;;;6.70;99.90;;;;;;5032227;28;20190;-64
2021/03/20 07:54:30;;;;;;;8.80;3.47;;;6.40;99.90;;;;;;5031289;28;20573;-64
2021/03/20 07:57:16;;;;;;;5.17;3.13;;;6.20;99.90;;;;;;5012974;28;20673;-64
2021/03/20 07:59:51;;;;;;;8.57;3.63;;;5.90;99.90;;;;;;5014644;28;20172;-65
2021/03/20 08:02:28;;;;;;;3.57;3.07;;;5.90;99.90;;;;;;5031765;28;20537;-65
2021/03/20 08:05:07;;;;;;;4.97;3.60;;;6.00;99.90;;;;;;5032856;28;20179;-64
2021/03/20 08:07:51;;;;;;;5.90;3.17;;;6.20;99.90;;;;;;5031954;28;20183;-63
2021/03/20 08:10:24;;;;;;;4.30;3.37;;;6.60;99.90;;;;;;5032240;28;20684;-64
2021/03/20 08:13:15;;;;;;;5.87;3.07;;;6.90;99.90;;;;;;5032734;28;20199;-64
2021/03/20 08:15:51;;;;;;;4.43;3.00;;;7.10;99.90;;;;;;5032318;28;20667;-62
2021/03/20 08:18:27;;;;;;;4.80;3.20;;;7.40;99.90;;;;;;5032552;28;20672;-64
2021/03/20 08:20:58;;;;;;;5.63;3.07;;;7.50;99.90;;;;;;5031875;28;20183;-63
2021/03/20 08:23:53;;;;;;;5.50;3.37;;;7.90;99.90;;;;;;5032156;28;20207;-64
2021/03/20 08:26:27;;;;;;;4.87;3.40;;;8.50;99.90;;;;;;5032056;28;20537;-63
2021/03/20 08:29:37;;;;;;;3.27;2.93;;;8.50;99.90;;;;;;5032326;28;20182;-64
2021/03/20 08:32:14;;;;;;;6.00;4.00;;;8.50;99.90;;;;;;5031906;28;20219;-64
2021/03/20 08:35:04;;;;;;;6.47;3.43;;;8.50;99.90;;;;;;5032229;28;20167;-65
2021/03/20 08:37:47;;;;;;;4.57;3.00;;;8.70;99.90;;;;;;5031736;28;20312;-63
2021/03/20 08:40:28;;;;;;;4.33;2.90;;;8.60;99.90;;;;;;5031670;28;20172;-64
2021/03/20 08:43:15;;;;;;;6.93;3.63;;;8.20;99.90;;;;;;5031981;28;20191;-64
2021/03/20 08:46:02;;;;;;;3.50;3.00;;;7.90;99.90;;;;;;5031882;28;20179;-64
2021/03/20 08:48:47;;;;;;;7.27;3.43;;;8.30;99.90;;;;;;5031786;28;20189;-63
2021/03/20 08:51:53;;;;;;;5.57;3.77;;;8.50;99.90;;;;;;5031509;28;20206;-63
2021/03/20 08:54:46;;;;;;;5.43;3.30;;;8.50;99.90;;;;;;5032124;28;20213;-64
2021/03/20 08:57:48;;;;;;;5.17;3.53;;;8.20;99.90;;;;;;5031479;28;20349;-64
2021/03/20 09:00:21;;;;;;;3.70;3.03;;;8.00;99.90;;;;;;5031456;28;20182;-64
2021/03/20 09:02:50;;;;;;;6.37;3.80;;;8.00;99.90;;;;;;5031447;28;20206;-64
2021/03/20 09:05:35;;;;;;;5.10;3.47;;;8.20;99.90;;;;;;5031325;28;20175;-64
2021/03/20 09:08:24;;;;;;;6.30;3.90;;;7.70;99.90;;;;;;5011315;28;20266;-63
2021/03/20 09:11:01;;;;;;;4.53;3.70;;;7.40;99.90;;;;;;5012464;28;20171;-63
2021/03/20 09:13:36;;;;;;;6.33;3.67;;;7.30;99.90;;;;;;5031272;28;20202;-63
2021/03/20 09:16:14;;;;;;;5.03;3.63;;;7.20;99.90;;;;;;5031344;28;20215;-64
2021/03/20 09:18:40;;;;;;;3.50;3.20;;;7.50;99.90;;;;;;5031474;28;20696;-63
2021/03/20 09:21:07;;;;;;;3.73;3.10;;;7.90;99.90;;;;;;5031078;28;20171;-64
2021/03/20 09:23:43;;;;;;;4.57;3.33;;;8.70;99.90;;;;;;5031510;28;20278;-64
2021/03/20 09:26:33;;;;;;;5.07;3.87;;;9.50;99.90;;;;;;5031275;28;20229;-63
2021/03/20 09:29:03;;;;;;;6.23;3.00;;;10.20;99.90;;;;;;5031023;28;20679;-64
2021/03/20 09:31:29;;;;;;;5.70;3.57;;;10.60;99.90;;;;;;5030620;28;20218;-64
2021/03/20 09:33:57;;;;;;;5.27;2.87;;;11.00;99.90;;;;;;5031260;28;20223;-63
2021/03/20 09:36:22;;;;;;;2.93;2.60;;;10.60;99.90;;;;;;5030149;28;20265;-64
2021/03/20 09:39:22;;;;;;;3.97;3.20;;;10.50;99.90;;;;;;5031253;28;20290;-63
2021/03/20 09:41:47;;;;;;;4.03;3.27;;;10.40;99.90;;;;;;5011364;28;20282;-65
2021/03/20 09:44:20;;;;;;;4.10;3.30;;;10.50;99.90;;;;;;5011670;28;20595;-63
2021/03/20 09:46:50;;;;;;;3.80;2.70;;;10.80;99.90;;;;;;5011542;28;20172;-64
2021/03/20 09:49:16;;;;;;;3.60;2.70;;;10.80;99.90;;;;;;5011335;28;20176;-63
2021/03/20 09:54:25;;;;;;;4.60;3.00;;;11.40;99.90;;;;;;5030678;28;20219;-64
2021/03/20 09:57:11;;;;;;;7.97;3.00;;;11.70;99.90;;;;;;5031039;28;20167;-64
2021/03/20 09:59:36;;;;;;;5.60;3.50;;;11.40;99.90;;;;;;5030809;28;20707;-64
2021/03/20 10:02:09;;;;;;;8.27;3.00;;;11.10;99.90;;;;;;5030826;28;20171;-64
2021/03/20 10:05:19;;;;;;;4.43;3.03;;;11.50;99.90;;;;;;5030766;28;20176;-64
2021/03/20 10:08:18;;;;;;;3.80;3.00;;;11.30;99.60;;;;;;5014116;28;20195;-64
2021/03/20 10:10:48;;;;;;;4.50;2.77;;;11.80;99.90;;;;;;5030447;28;20188;-65
2021/03/20 10:13:21;;;;;;;5.23;3.17;;;12.20;98.60;;;;;;5030940;28;20204;-65
2021/03/20 10:15:57;;;;;;;4.73;2.60;;;12.40;99.70;;;;;;5025068;28;20176;-65
2021/03/20 10:18:33;;;;;;;3.00;2.50;;;12.90;99.90;;;;;;5017292;28;20210;-64
2021/03/20 10:21:11;;;;;;;3.53;2.70;;;13.00;97.30;;;;;;5010913;28;20214;-64
2021/03/20 10:24:15;;;;;;;4.57;2.60;;;13.30;97.00;;;;;;5028936;28;20191;-64
2021/03/20 10:26:54;;;;;;;4.10;2.53;;;12.90;95.50;;;;;;5033854;28;20552;-64
2021/03/20 10:29:20;;;;;;;3.50;2.40;;;12.80;92.90;;;;;;5031193;28;20194;-64
2021/03/20 10:31:50;;;;;;;3.47;2.33;;;12.50;94.30;;;;;;5014628;28;20172;-64
2021/03/20 10:34:18;;;;;;;2.63;2.43;;;12.50;91.10;;;;;;5014946;28;20188;-65
2021/03/20 10:36:46;;;;;;;2.40;2.10;;;12.20;90.10;;;;;;5014672;28;20223;-63
2021/03/20 10:39:25;;;;;;;2.00;1.80;;;11.90;89.90;;;;;;5013738;28;20180;-64
2021/03/20 10:41:55;;;;;;;2.83;1.97;;;11.60;80.00;;;;;;5014328;28;20172;-65
2021/03/20 10:44:25;;;;;;;2.00;1.67;;;11.50;78.70;;;;;;5014487;28;20184;-64
2021/03/20 10:47:28;;;;;;;3.47;2.20;;;11.60;83.20;;;;;;5014538;28;20175;-64
2021/03/20 10:50:03;;;;;;;3.97;2.30;;;11.70;85.60;;;;;;5006119;28;20669;-64
2021/03/20 10:52:40;;;;;;;4.47;2.33;;;11.90;85.30;;;;;;5034100;28;20735;-64
2021/03/20 10:55:31;;;;;;;4.23;2.47;;;12.20;85.50;;;;;;5030639;28;20178;-65
2021/03/20 10:57:58;;;;;;;2.10;2.00;;;12.50;90.70;;;;;;5034040;28;20206;-64
2021/03/20 11:00:29;;;;;;;2.67;2.20;;;12.70;85.90;;;;;;5033632;28;20832;-64
2021/03/20 11:03:14;;;;;;;2.77;2.17;;;12.70;85.40;;;;;;5021538;28;20202;-63
2021/03/20 11:05:42;;;;;;;4.87;2.40;;;12.20;82.20;;;;;;5014120;28;20168;-64
2021/03/20 11:08:20;;;;;;;2.60;2.40;;;12.00;86.70;;;;;;5019520;28;20250;-64
2021/03/20 11:11:21;;;;;;;3.57;3.10;;;12.20;87.30;;;;;;5033607;28;20250;-63
2021/03/20 11:13:50;;;;;;;3.50;2.70;;;12.30;86.20;;;;;;5033522;28;20210;-63
2021/03/20 11:16:24;;;;;;;2.57;2.17;;;12.50;87.00;;;;;;5033646;28;20203;-64
2021/03/20 11:19:22;;;;;;;4.30;2.67;;;12.60;86.70;;;;;;5033355;28;20198;-64
2021/03/20 11:21:50;;;;;;;3.40;2.53;;;11.90;82.60;;;;;;5019144;28;20206;-64
2021/03/20 11:24:24;;;;;;;2.77;2.30;;;12.10;83.50;;;;;;5033229;28;20195;-64
2021/03/20 11:26:51;;;;;;;3.93;2.80;;;12.10;82.50;;;;;;5033548;28;20178;-65
2021/03/20 11:29:27;;;;;;;2.67;2.37;;;12.10;81.60;;;;;;5033108;28;20536;-64
2021/03/20 11:31:57;;;;;;;2.67;2.33;;;12.20;84.00;;;;;;5033147;28;20174;-64
2021/03/20 11:34:43;;;;;;;2.47;2.23;;;12.00;81.10;;;;;;5033596;28;20206;-64
2021/03/20 11:37:19;;;;;;;3.00;2.03;;;11.60;82.00;;;;;;5032247;28;20702;-63
2021/03/20 11:39:44;;;;;;;3.10;2.70;;;11.40;81.80;;;;;;5032832;28;20175;-64
2021/03/20 11:42:13;;;;;;;3.73;2.43;;;11.40;84.10;;;;;;5033217;28;20172;-64
2021/03/20 11:44:45;;;;;;;3.00;2.60;;;10.60;83.40;;;;;;5032798;28;20190;-63
2021/03/20 11:47:30;;;;;;;3.70;2.47;;;10.60;85.40;;;;;;5033238;28;20199;-63
2021/03/20 11:49:58;;;;;;;2.90;2.60;;;11.00;85.10;;;;;;5032673;28;20229;-64
2021/03/20 11:52:28;;;;;;;3.63;2.57;;;11.00;82.20;;;;;;5031425;28;20264;-64
2021/03/20 11:55:12;;;;;;;2.73;2.50;;;10.90;78.90;;;;;;5032800;28;20557;-63
2021/03/20 11:57:40;;;;;;;3.40;2.43;;;10.70;83.20;;;;;;5032848;28;20234;-64
2021/03/20 12:00:35;;;;;;;4.10;2.53;;;10.80;78.50;;;;;;5032983;28;20535;-64
2021/03/20 12:03:09;;;;;;;2.87;2.47;;;10.90;80.20;;;;;;5033216;28;20222;-64
2021/03/20 12:05:37;;;;;;;2.57;2.37;;;10.90;81.90;;;;;;5032465;28;20254;-64
2021/03/20 12:08:33;;;;;;;3.30;2.30;;;11.10;73.80;;;;;;5032698;28;20664;-64
2021/03/20 12:11:07;;;;;;;2.53;2.27;;;11.50;83.50;;;;;;5012806;28;20263;-64
2021/03/20 12:13:43;;;;;;;3.43;2.40;;;12.20;78.40;;;;;;5013410;28;20225;-65
2021/03/20 12:16:30;;;;;;;3.93;2.40;;;12.20;78.60;;;;;;5013110;28;20659;-64
2021/03/20 12:19:22;;;;;;;2.73;2.40;;;12.20;76.50;;;;;;5015522;28;20199;-65
2021/03/20 12:22:05;;;;;;;3.13;2.83;;;11.90;76.20;;;;;;5030378;28;20555;-64
2021/03/20 12:24:32;;;;;;;2.13;1.90;;;11.80;73.10;;;;;;5032072;28;20696;-63
2021/03/20 12:27:24;;;;;;;3.13;2.30;;;11.80;77.50;;;;;;5032372;28;20198;-64
2021/03/20 12:29:53;;;;;;;3.07;2.33;;;12.30;74.30;;;;;;5031976;28;20191;-64
2021/03/20 12:32:35;;;;;;;3.10;1.80;;;12.50;76.10;;;;;;5032217;28;20168;-64
2021/03/20 12:35:29;;;;;;;2.77;2.10;;;12.60;77.40;;;;;;5032045;28;20179;-63
2021/03/20 12:38:10;;;;;;;3.47;2.03;;;12.20;75.00;;;;;;5032325;28;20285;-63
2021/03/20 12:40:37;;;;;;;3.40;2.30;;;12.10;74.50;;;;;;5031523;28;20187;-63
2021/03/20 12:43:05;;;;;;;3.37;2.27;;;12.00;73.20;;;;;;5031827;28;20203;-65
2021/03/20 12:45:34;;;;;;;2.70;2.10;;;12.10;69.30;;;;;;5031864;28;20180;-64
2021/03/20 12:48:00;;;;;;;2.30;2.00;;;12.70;71.20;;;;;;5031586;28;20317;-63
2021/03/20 12:50:25;;;;;;;2.20;2.00;;;12.80;70.20;;;;;;5031367;28;20184;-64
2021/03/20 12:52:51;;;;;;;2.10;1.90;;;13.40;75.10;;;;;;5031111;28;20689;-63
2021/03/20 12:55:17;;;;;;;2.23;2.03;;;14.10;71.10;;;;;;5031683;28;20210;-64
2021/03/20 12:57:42;;;;;;;2.10;1.90;;;13.80;68.30;;;;;;5031516;28;20214;-64
2021/03/20 13:00:21;;;;;;;2.70;2.10;;;12.90;67.10;;;;;;5031591;28;20245;-63
2021/03/20 13:02:47;;;;;;;5.13;2.80;;;12.20;65.80;;;;;;5031434;28;20294;-65
2021/03/20 13:05:35;;;;;;;2.33;1.97;;;12.30;67.70;;;;;;5031758;28;20211;-65
2021/03/20 13:08:00;;;;;;;2.83;1.80;;;12.50;70.60;;;;;;5031517;28;20179;-63
2021/03/20 13:10:26;;;;;;;4.23;1.77;;;12.60;68.90;;;;;;5031331;28;20183;-64
2021/03/20 13:12:52;;;;;;;6.37;2.10;;;12.40;61.50;;;;;;5031352;28;20202;-64
2021/03/20 13:15:19;;;;;;;3.10;2.20;;;12.00;65.50;;;;;;5031367;28;20207;-64
2021/03/20 13:17:46;;;;;;;3.33;1.90;;;12.10;63.70;;;;;;5031204;28;20260;-65
2021/03/20 13:20:12;;;;;;;3.07;2.07;;;12.30;63.70;;;;;;5031519;28;20203;-64
2021/03/20 13:22:38;;;;;;;3.97;2.07;;;11.90;60.10;;;;;;5031181;28;20206;-64
2021/03/20 13:25:06;;;;;;;3.13;2.30;;;12.00;62.10;;;;;;5031414;28;20175;-65
2021/03/20 13:27:31;;;;;;;4.83;2.20;;;12.00;59.70;;;;;;5031382;28;20187;-63
2021/03/20 13:29:57;;;;;;;3.17;2.13;;;11.90;62.30;;;;;;5031014;28;20187;-64
2021/03/20 13:32:23;;;;;;;3.77;2.10;;;11.90;61.50;;;;;;5031141;28;20198;-64